Latest Coastal Weather Observations for Montague Island

IDN60701

Issued at 9:25 pm EDT Saturday 25 October 2014 (issued every 10 minutes, with the page automatically refreshed every 10 minutes)

About coastal observations | Map of coastal stations | Coastal observations for NSW | Marine services | Other Formats
Station Details ID: 069017 Name: MONTAGUE ISLAND LIGHTHOUSE Lat: -36.25 Lon: 150.23 Height: 52.0 m
Data from the previous 72 hours. | See also: Recent months at Montague Island
Date/Time
EDT
Temp

°C
Wind Pressure Rain
since 9am
mm
Weather Cloud Vis
km
Sea
Height
m
Swell
Dir
 
Speed
knots
Gust
knots
hPa Trend Height
m
Period
s
Dir
25/09:00pm 17.2 ENE 5 6 1016.0 - 0.0 - - - - - - -
25/08:30pm 17.4 E 7 8 1015.6 - 0.0 - - - - - - -
25/08:00pm 17.4 ESE 8 9 1015.5 - 0.0 - - - - - - -
25/07:30pm 17.5 ESE 9 10 1016.1 - 0.0 - - - - - - -
25/07:00pm 17.4 ESE 8 10 1015.7 - 0.0 - - - - - - -
25/06:30pm 17.4 E 8 10 1015.3 - 0.0 - - - - - - -
25/06:00pm 17.6 ESE 7 9 1015.2 - 0.0 - - - - - - -
25/05:30pm 17.4 E 7 13 1014.3 - 0.0 - - - - - - -
25/05:00pm 17.4 ESE 7 9 1015.3 - 0.0 - - - - - - -
25/04:30pm 17.5 ESE 8 10 1014.6 - 0.0 - - - - - - -
25/04:00pm 18.0 ESE 10 12 1015.2 - 0.0 - - - - - - -
25/03:30pm 18.0 SE 11 13 1015.2 - 0.0 - - - - - - -
25/03:00pm 18.6 SE 11 14 1015.7 - 0.0 - - - - - - -
25/02:30pm 18.5 SE 14 16 1015.6 - 0.0 - - - - - - -
25/02:00pm 18.2 SE 14 18 1016.0 - 0.0 - - - - - - -
25/01:30pm 18.7 SE 15 17 1015.9 - 0.0 - - - - - - -
25/01:00pm 19.1 SE 14 16 1016.0 - 0.0 - - - - - - -
25/12:30pm 19.3 SSE 14 16 1016.1 - 0.0 - - - - - - -
25/12:00pm 18.8 SSE 13 16 1016.3 - 0.0 - - - - - - -
25/11:30am 19.4 SSE 13 15 1016.5 - 0.0 - - - - - - -
25/11:00am 19.0 SSE 15 17 1016.4 - 0.0 - - - - - - -
25/10:30am 18.6 SSE 17 19 1016.5 - 0.0 - - - - - - -
25/10:00am 18.9 SSE 15 17 1016.5 - 0.0 - - - - - - -
25/09:30am 18.9 SSE 15 17 1016.5 - 0.0 - - - - - - -
25/09:00am 20.1 S 9 12 1016.1 - 0.2 - - - - - - -
25/08:30am 19.6 S 9 12 1016.0 - 0.2 - - - - - - -
25/08:00am 18.0 SSW 7 10 1015.6 - 0.2 - - - - - - -
25/07:30am 17.6 SW 9 12 1015.3 - 0.2 - - - - - - -
25/07:00am 16.9 SW 10 11 1015.0 - 0.2 - - - - - - -
25/06:30am 16.7 SSW 9 12 1014.8 - 0.2 - - - - - - -
25/06:00am 16.9 S 15 18 1014.2 - 0.2 - - - - - - -
25/05:30am 16.8 SSW 15 17 1013.6 - 0.2 - - - - - - -
25/05:00am 16.7 SSW 16 18 1013.3 - 0.2 - - - - - - -
25/04:30am 16.9 SSW 13 16 1013.0 - 0.2 - - - - - - -
25/04:00am 17.2 SSW 13 16 1012.4 - 0.2 - - - - - - -
25/03:30am 17.1 SSW 11 14 1012.3 - 0.2 - - - - - - -
25/03:00am 17.1 SW 8 10 1012.0 - 0.2 - - - - - - -
25/02:30am 17.9 ESE 2 3 1011.5 - 0.2 - - - - - - -
25/02:00am 17.9 SW 5 7 1011.6 - 0.2 - - - - - - -
25/01:30am 18.7 SE 2 4 1011.5 - 0.2 - - - - - - -
25/01:00am 18.4 E 4 5 1011.5 - 0.2 - - - - - - -
25/12:30am 18.2 SSE 5 9 1011.4 - 0.2 - - - - - - -
25/12:00am 18.2 NW 4 7 1011.4 - 0.2 - - - - - - -
 
Date/Time
EDT
Temp

°C
Wind Pressure Rain
since 9am
mm
Weather Cloud Vis
km
Sea
Height
m
Swell
Dir
 
Speed
knots
Gust
knots
hPa Trend Height
m
Period
s
Dir
24/11:30pm 18.1 N 8 9 1011.4 - 0.2 - - - - - - -
24/11:00pm 18.3 N 12 15 1011.2 - 0.2 - - - - - - -
24/10:30pm 18.6 N 14 17 1011.2 - 0.2 - - - - - - -
24/10:00pm 18.8 N 13 17 1011.4 - 0.2 - - - - - - -
24/09:30pm 19.0 N 13 16 1011.8 - 0.2 - - - - - - -
24/09:00pm 19.4 N 17 22 1011.7 - 0.2 - - - - - - -
24/08:30pm 19.2 N 17 24 1011.5 - 0.2 - - - - - - -
24/08:00pm 19.4 N 21 24 1011.3 - 0.2 - - - - - - -
24/07:30pm 19.4 NNE 24 28 1011.1 - 0.2 - - - - - - -
24/07:00pm 19.4 N 19 26 1011.2 - 0.2 - - - - - - -
24/06:30pm 19.6 N 21 28 1011.1 - 0.2 - - - - - - -
24/06:00pm 19.9 NNE 20 25 1011.1 - 0.2 - - - - - - -
24/05:30pm 20.0 NNE 19 22 1011.2 - 0.2 - - - - - - -
24/05:00pm 20.1 NNE 21 25 1011.3 - 0.2 - - - - - - -
24/04:30pm 20.5 NNE 21 25 1011.3 - 0.2 - - - - - - -
24/04:00pm 20.6 NNE 23 27 1011.6 - 0.2 - - - - - - -
24/03:30pm 20.7 N 27 33 1011.9 - 0.2 - - - - - - -
24/03:00pm 20.6 N 26 31 1012.0 - 0.2 - - - - - - -
24/02:30pm 20.4 NNE 27 33 1012.1 - 0.2 - - - - - - -
24/02:00pm 20.6 NNE 26 32 1012.7 - 0.2 - - - - - - -
24/01:30pm 20.4 NNE 25 30 1013.5 - 0.2 - - - - - - -
24/01:00pm 20.5 N 25 29 1014.0 - 0.2 - - - - - - -
24/12:30pm 20.2 N 25 31 1014.7 - 0.2 - - - - - - -
24/12:00pm 20.1 N 18 24 1015.3 - 0.2 - - - - - - -
24/11:30am 20.1 N 18 23 1016.0 - 0.2 - - - - - - -
24/11:00am 20.2 N 15 21 1016.6 - 0.2 - - - - - - -
24/10:30am 20.1 N 14 18 1017.2 - 0.2 - - - - - - -
24/10:00am 19.4 N 12 16 1017.4 - 0.2 - - - - - - -
24/09:30am 19.4 N 10 13 1017.9 - 0.2 - - - - - - -
24/09:00am 18.5 N 10 13 1018.1 - - - - - - - - -
24/08:30am 18.3 N 8 11 1018.1 - - - - - - - - -
24/08:00am 18.4 N 9 13 1018.3 - - - - - - - - -
24/07:30am 17.9 NNW 10 13 1018.5 - - - - - - - - -
24/07:00am 18.1 NNW 8 10 1018.4 - - - - - - - - -
24/06:30am 18.5 N 14 16 1018.0 - - - - - - - - -
24/06:00am 18.4 N 14 18 1017.9 - - - - - - - - -
24/05:30am 18.1 ENE 6 13 1018.1 - - - - - - - - -
24/05:00am 18.2 N 5 9 1018.7 - - - - - - - - -
24/04:30am 17.8 ENE 8 10 1017.4 - - - - - - - - -
24/04:00am 17.4 SE 8 9 1018.2 - - - - - - - - -
24/03:30am 17.1 S 9 11 1018.9 - - - - - - - - -
24/03:00am 17.7 ESE 7 15 1018.9 - 1.0 Recent precip. - - - - - -
24/02:30am 17.2 N 12 15 1018.1 - - - - - - - - -
24/02:00am 17.4 WSW 12 15 1019.2 - - - - - - - - -
24/01:30am 17.8 E 3 7 1018.8 - - - - - - - - -
24/01:00am 17.8 ESE 7 12 1019.2 - - - - - - - - -
24/12:30am 17.5 SSE 10 14 1019.1 - - - - - - - - -
24/12:00am 17.7 S 6 8 1019.5 - - - - - - - - -
 
Date/Time
EDT
Temp

°C
Wind Pressure Rain
since 9am
mm
Weather Cloud Vis
km
Sea
Height
m
Swell
Dir
 
Speed
knots
Gust
knots
hPa Trend Height
m
Period
s
Dir
23/11:30pm 18.0 WSW 5 7 1019.5 - - - - - - - - -
23/11:00pm 18.4 NW 11 13 1019.5 - - - - - - - - -
23/10:30pm 18.2 ENE 15 18 1018.4 - - - - - - - - -
23/10:00pm 17.8 E 14 16 1019.0 - - - - - - - - -
23/09:30pm 17.9 N 3 6 1020.1 - - - - - - - - -
23/09:00pm 17.8 WSW 10 14 1021.0 - 0.0 - - - - - - -
23/08:30pm 17.6 SW 9 10 1020.2 - - - - - - - - -
23/08:00pm 17.8 SW 15 19 1019.6 - - - - - - - - -
23/07:30pm 18.4 S 11 14 1018.8 - - - - - - - - -
23/07:00pm 18.5 SSE 5 7 1018.3 - - - - - - - - -
23/06:30pm 18.5 E 10 10 1018.1 - - - - - - - - -
23/06:00pm 18.6 SSE 11 13 1018.2 - - - - - - - - -
23/05:30pm 19.1 SW 17 20 1018.9 - - - - - - - - -
23/05:25pm 19.1 SW 15 20 1019.0 - - - - - - - - -
23/05:00pm 19.4 S 8 9 1018.0 - - - - - - - - -
23/04:30pm 19.7 SSE 6 8 1018.1 - - - - - - - - -
23/04:00pm 20.7 ESE 3 5 1018.0 - - - - - - - - -
23/03:30pm 21.1 S 4 6 1017.4 - - - - - - - - -
23/03:00pm 20.3 SSE 4 6 1017.3 - - - - - - - - -
23/02:30pm 20.7 ESE 6 7 1017.2 - - - - - - - - -
23/02:00pm 20.2 SE 5 7 1017.5 - - - - - - - - -
23/01:30pm 20.1 ESE 5 7 1017.8 - - - - - - - - -
23/01:00pm 20.3 ESE 5 7 1017.8 - - - - - - - - -
23/12:30pm 19.6 ESE 5 6 1017.9 - - - - - - - - -
23/12:00pm 19.2 ESE 3 4 1018.1 - - - - - - - - -
23/11:00am 19.5 N 4 6 1017.6 - 0.0 - - - - - - -
23/10:30am 18.9 NNW 4 5 1017.8 - 0.0 - - - - - - -
23/10:00am 18.7 NNW 2 4 1017.8 - 0.0 - - - - - - -
23/09:30am 17.8 E 4 5 1017.7 - 0.0 - - - - - - -
23/09:00am 18.4 ESE 3 6 1017.7 - 0.0 - - - - - - -
23/08:30am 17.6 NNE 3 6 1017.5 - 0.0 - - - - - - -
23/08:00am 16.9 NNW 2 3 1017.6 - 0.0 - - - - - - -
23/07:30am 16.5 NNW 4 5 1017.4 - 0.0 - - - - - - -
23/07:00am 16.4 NNE 3 4 1017.1 - 0.0 - - - - - - -
23/06:30am 15.6 NNE 3 4 1016.8 - 0.0 - - - - - - -
23/06:00am 15.5 SW 2 2 1016.8 - 0.0 - - - - - - -
23/05:30am 15.6 S 2 3 1016.4 - 0.0 - - - - - - -
23/05:00am 15.4 SW 4 7 1016.1 - 0.0 - - - - - - -
23/04:30am 15.6 W 5 8 1016.2 - 0.0 - - - - - - -
23/04:00am 15.4 W 1 3 1015.7 - 0.0 - - - - - - -
23/03:30am 15.5 W 3 4 1016.0 - 0.0 - - - - - - -
23/03:00am 15.8 NW 4 5 1016.3 - 0.0 - - - - - - -
23/02:30am 16.2 NNW 4 5 1016.5 - 0.0 - - - - - - -
23/02:00am 16.0 N 6 7 1017.1 - 0.0 - - - - - - -
23/01:30am 16.4 N 8 10 1017.2 - 0.0 - - - - - - -
23/01:00am 16.7 N 10 12 1017.7 - 0.0 - - - - - - -
23/12:30am 17.1 N 10 14 1017.9 - 0.0 - - - - - - -
23/12:00am 17.2 N 10 13 1018.1 - 0.0 - - - - - - -
 
Date/Time
EDT
Temp

°C
Wind Pressure Rain
since 9am
mm
Weather Cloud Vis
km
Sea
Height
m
Swell
Dir
 
Speed
knots
Gust
knots
hPa Trend Height
m
Period
s
Dir
22/11:30pm 17.3 N 9 12 1018.6 - 0.0 - - - - - - -
22/11:00pm 17.4 N 9 12 1018.8 - 0.0 - - - - - - -
22/10:30pm 17.5 N 11 14 1019.1 - 0.0 - - - - - - -
22/10:00pm 17.7 N 14 18 1018.9 - 0.0 - - - - - - -
22/09:30pm 17.8 N 17 20 1019.0 - 0.0 - - - - - - -

Other Formats:

Comma delimited format used in spreadsheet applications
http://www.bom.gov.au/fwo/IDN60701/IDN60701.94939.axf

JavaScript Object Notation format (JSON) in row-major order
http://www.bom.gov.au/fwo/IDN60701/IDN60701.94939.json